createdAt,value
2022-12-19T00:07:31.455Z,60.97
2022-12-19T00:12:46.587Z,61.03
2022-12-19T00:18:35.015Z,60.74
2022-12-19T00:23:46.164Z,60.54
2022-12-19T00:28:57.617Z,60.58
2022-12-19T00:34:03.358Z,60.32
2022-12-19T00:39:08.824Z,60.02
2022-12-19T00:51:09.646Z,59.77
2022-12-19T00:56:17.405Z,59.45
2022-12-19T01:01:38.061Z,59.59
2022-12-19T01:06:43.242Z,59.53
2022-12-19T01:12:30.842Z,59.29
2022-12-19T01:17:43.497Z,58.74
2022-12-19T01:22:58.544Z,58.60
2022-12-19T01:28:32.239Z,58.30
2022-12-19T01:34:42.626Z,57.47
2022-12-19T01:53:51.365Z,56.16
2022-12-19T02:05:54.854Z,58.44
2022-12-19T02:11:06.417Z,59.38
2022-12-19T02:22:35.890Z,59.71
2022-12-19T02:47:13.663Z,58.92
2022-12-19T02:53:30.497Z,57.85
2022-12-19T02:59:02.792Z,58.07
2022-12-19T03:09:12.804Z,58.43
2022-12-19T03:20:54.248Z,58.87
2022-12-19T03:26:29.257Z,58.38
2022-12-19T03:31:35.074Z,57.92
2022-12-19T03:36:43.319Z,57.73
2022-12-19T03:42:06.732Z,58.26
2022-12-19T03:47:17.735Z,60.45
2022-12-19T03:52:54.182Z,58.94
2022-12-19T03:58:06.531Z,58.91
2022-12-19T04:03:10.316Z,75.34
2022-12-19T04:08:14.406Z,61.42
2022-12-19T04:13:23.560Z,57.30
2022-12-19T04:18:28.020Z,56.89
2022-12-19T04:23:41.643Z,57.55
2022-12-19T04:28:52.982Z,58.63
2022-12-19T04:33:56.277Z,56.47
2022-12-19T04:38:59.641Z,55.64
2022-12-19T04:44:03.094Z,55.45
2022-12-19T04:49:06.540Z,55.67
2022-12-19T04:54:09.925Z,56.52
2022-12-19T04:59:13.720Z,56.45
2022-12-19T05:04:17.059Z,56.41
2022-12-19T05:09:20.599Z,57.49
2022-12-19T05:14:23.968Z,55.43
2022-12-19T05:19:27.422Z,55.41
2022-12-19T05:24:30.906Z,55.43
2022-12-19T05:29:35.050Z,55.58
2022-12-19T05:34:38.279Z,55.85
2022-12-19T05:39:41.640Z,55.90
2022-12-19T05:44:44.981Z,55.76
2022-12-19T05:49:48.256Z,56.07
2022-12-19T05:54:51.914Z,56.97
2022-12-19T06:00:00.226Z,56.58
2022-12-19T06:05:04.092Z,56.27
2022-12-19T06:10:10.007Z,55.99
2022-12-19T06:15:13.943Z,55.86
2022-12-19T06:20:18.194Z,56.02
2022-12-19T06:25:21.455Z,56.30
2022-12-19T06:30:24.812Z,56.64
2022-12-19T06:35:28.386Z,57.07
2022-12-19T06:40:50.359Z,56.30
2022-12-19T06:45:53.843Z,55.84
2022-12-19T06:50:57.241Z,55.49
2022-12-19T06:56:01.107Z,55.74
2022-12-19T07:01:04.791Z,55.31
2022-12-19T07:06:15.430Z,55.36
2022-12-19T07:11:19.029Z,55.55
2022-12-19T07:16:25.304Z,55.48
2022-12-19T07:21:29.762Z,55.03
2022-12-19T07:26:33.753Z,55.29
2022-12-19T07:31:40.287Z,55.06
2022-12-19T07:36:44.138Z,54.97
2022-12-19T07:41:47.899Z,55.31
2022-12-19T07:46:57.660Z,55.72
2022-12-19T07:52:01.064Z,55.88
2022-12-19T07:57:05.347Z,56.08
2022-12-19T08:02:18.084Z,56.58
2022-12-19T08:07:22.051Z,57.17
2022-12-19T08:12:25.335Z,57.13
2022-12-19T08:17:28.769Z,57.00
2022-12-19T08:22:32.270Z,57.24
2022-12-19T08:27:35.843Z,57.22
2022-12-19T08:32:39.034Z,57.31
2022-12-19T08:37:42.411Z,57.01
2022-12-19T08:42:46.109Z,56.33
2022-12-19T08:47:49.884Z,56.40
2022-12-19T08:52:53.360Z,56.81
2022-12-19T08:57:56.855Z,56.61
2022-12-19T09:03:00.272Z,56.62
2022-12-19T09:08:04.340Z,56.40
2022-12-19T09:13:08.978Z,56.45
2022-12-19T09:18:12.459Z,56.16
2022-12-19T09:23:15.801Z,56.34
2022-12-19T09:28:27.398Z,56.71
2022-12-19T09:33:37.997Z,56.97
2022-12-19T09:38:45.339Z,57.38
2022-12-19T09:43:51.151Z,57.01
2022-12-19T09:48:56.397Z,56.79
2022-12-19T09:54:33.392Z,57.01
2022-12-19T09:59:50.278Z,56.83
2022-12-19T10:05:13.841Z,57.03
2022-12-19T10:12:38.372Z,57.14
2022-12-19T10:16:05.599Z,57.13
2022-12-19T10:22:15.718Z,56.90
2022-12-19T10:27:16.395Z,56.79
2022-12-19T10:32:22.569Z,59.67
2022-12-19T10:37:37.650Z,56.62
2022-12-19T10:42:51.407Z,56.16
2022-12-19T10:47:58.797Z,56.22
2022-12-19T10:58:46.824Z,56.43
2022-12-19T11:03:56.634Z,56.37
2022-12-19T11:09:21.795Z,56.29
2022-12-19T11:17:41.567Z,56.47
2022-12-19T11:28:58.442Z,56.54
2022-12-19T11:29:46.779Z,56.63
2022-12-19T11:48:50.152Z,56.75
2022-12-19T11:54:24.415Z,56.72
2022-12-19T11:59:35.828Z,56.89
2022-12-19T12:05:23.303Z,56.88
2022-12-19T12:15:26.904Z,57.81
2022-12-19T12:30:11.680Z,56.82
2022-12-19T12:31:05.950Z,56.32
2022-12-19T12:31:43.768Z,56.42
2022-12-19T12:35:56.946Z,56.47
2022-12-19T12:38:52.117Z,56.50
2022-12-19T12:44:08.599Z,56.58
2022-12-19T12:49:52.889Z,56.47
2022-12-19T12:55:01.300Z,56.33
2022-12-19T13:00:21.874Z,57.11
2022-12-19T13:05:46.195Z,56.24
2022-12-19T13:10:58.272Z,55.94
2022-12-19T13:16:42.824Z,56.01
2022-12-19T13:22:04.510Z,56.00
2022-12-19T13:27:19.778Z,56.19
2022-12-19T13:32:32.806Z,56.36
2022-12-19T13:39:57.712Z,58.40
2022-12-19T13:43:29.815Z,56.78
2022-12-19T13:49:00.777Z,56.52
2022-12-19T13:54:04.742Z,56.83
2022-12-19T13:59:10.084Z,56.96
2022-12-19T14:04:24.744Z,57.02
2022-12-19T14:11:31.757Z,56.93
2022-12-19T14:15:32.651Z,57.05
2022-12-19T14:22:11.469Z,57.39
2022-12-19T14:28:20.123Z,57.48
2022-12-19T14:33:40.659Z,57.79
2022-12-19T14:39:20.406Z,57.84
2022-12-19T14:43:59.897Z,57.81
2022-12-19T14:54:12.028Z,58.12
2022-12-19T14:59:56.698Z,58.60
2022-12-19T15:05:14.360Z,58.49
2022-12-19T15:11:07.284Z,58.67
2022-12-19T15:16:01.501Z,58.81
2022-12-19T15:21:13.700Z,58.90
2022-12-19T15:26:26.522Z,58.74
2022-12-19T15:31:39.310Z,58.46
2022-12-19T15:36:43.500Z,58.29
2022-12-19T15:41:55.591Z,58.36
2022-12-19T15:47:05.486Z,58.28
2022-12-19T15:52:19.099Z,58.51
2022-12-19T15:57:39.970Z,58.50
2022-12-19T16:08:15.697Z,58.78
2022-12-19T16:13:32.102Z,58.86
2022-12-19T16:18:36.861Z,58.85
2022-12-19T16:23:43.936Z,59.05
2022-12-19T16:28:48.142Z,59.03
2022-12-19T16:33:52.732Z,59.11
2022-12-19T16:38:59.259Z,59.01
2022-12-19T16:44:21.469Z,58.98
2022-12-19T16:49:25.856Z,58.88
2022-12-19T16:55:30.229Z,58.85
2022-12-19T17:00:18.413Z,58.86
2022-12-19T17:06:16.957Z,58.95
2022-12-19T17:11:11.926Z,61.07
2022-12-19T17:16:41.896Z,59.03
2022-12-19T17:21:59.226Z,58.57
2022-12-19T17:27:06.926Z,58.24
2022-12-19T17:32:23.733Z,58.45
2022-12-19T17:37:28.918Z,58.11
2022-12-19T17:42:40.211Z,58.14
2022-12-19T17:47:48.119Z,58.14
2022-12-19T17:52:52.151Z,57.74
2022-12-19T17:58:02.749Z,57.73
2022-12-19T18:03:25.061Z,57.59
2022-12-19T18:08:35.894Z,57.57
2022-12-19T18:13:39.813Z,59.50
2022-12-19T18:18:45.179Z,58.34
2022-12-19T18:23:49.457Z,58.21
2022-12-19T18:28:54.746Z,58.30
2022-12-19T18:34:07.302Z,59.28
2022-12-19T18:39:25.094Z,59.40
2022-12-19T18:44:28.840Z,59.46
2022-12-19T18:49:36.949Z,58.87
2022-12-19T18:54:40.818Z,58.37
2022-12-19T18:59:47.629Z,58.45
2022-12-19T19:04:51.743Z,58.44
2022-12-19T19:09:55.627Z,58.70
2022-12-19T19:15:23.103Z,59.52
2022-12-19T19:20:29.637Z,60.17
2022-12-19T19:25:35.439Z,59.14
2022-12-19T19:31:00.805Z,58.72
2022-12-19T19:36:13.049Z,59.04
2022-12-19T19:41:17.076Z,59.74
2022-12-19T19:46:22.633Z,59.24
2022-12-19T19:51:29.241Z,59.33
2022-12-19T19:56:42.581Z,59.41
2022-12-19T20:01:46.482Z,62.17
2022-12-19T20:06:53.948Z,60.20
2022-12-19T20:11:57.926Z,59.58
2022-12-19T20:17:01.804Z,59.84
2022-12-19T20:22:06.684Z,59.58
2022-12-19T20:27:13.908Z,59.92
2022-12-19T20:32:17.779Z,60.09
2022-12-19T20:37:20.947Z,60.14
2022-12-19T20:42:25.179Z,60.16
2022-12-19T20:47:28.840Z,60.25
2022-12-19T20:52:34.845Z,60.40
2022-12-19T20:57:39.040Z,60.36
2022-12-19T21:03:25.068Z,60.51
2022-12-19T21:08:07.308Z,60.88
2022-12-19T21:13:10.382Z,61.31
2022-12-19T21:18:13.485Z,61.55
2022-12-19T21:23:16.832Z,61.89
2022-12-19T21:28:21.685Z,61.98
2022-12-19T21:33:25.758Z,62.24
2022-12-19T21:38:28.970Z,62.25
2022-12-19T21:43:36.820Z,62.73
2022-12-19T21:48:42.715Z,63.16
2022-12-19T21:53:46.604Z,63.35
2022-12-19T21:58:55.857Z,63.12
2022-12-19T22:04:01.298Z,62.84
2022-12-19T22:09:07.374Z,62.89
2022-12-19T22:14:14.902Z,62.77
2022-12-19T22:19:19.190Z,63.31
2022-12-19T22:24:22.837Z,63.40
2022-12-19T22:29:26.035Z,63.65
2022-12-19T22:34:29.723Z,63.79
2022-12-19T22:39:33.068Z,64.11
2022-12-19T22:44:36.436Z,64.28
2022-12-19T22:49:39.597Z,64.17
2022-12-19T22:54:43.003Z,64.18
2022-12-19T22:59:46.172Z,64.45
2022-12-19T23:04:49.412Z,64.44
2022-12-19T23:09:52.676Z,64.59
2022-12-19T23:14:55.926Z,64.86
2022-12-19T23:19:59.271Z,65.01
2022-12-19T23:25:02.498Z,65.23
2022-12-19T23:30:06.380Z,65.13
2022-12-19T23:35:10.711Z,65.18
2022-12-19T23:40:16.176Z,65.25
2022-12-19T23:45:23.124Z,64.92
2022-12-19T23:50:31.302Z,64.96
2022-12-19T23:55:50.481Z,65.11
